sensor_id;sensor_type;location;lat;lon;timestamp;pressure;altitude;pressure_sealevel;temperature;humidity
65718;BME280;52445;52.466;-1.016;2023-04-26T00:00:48;100477.19;;;5.57;57.21
65718;BME280;52445;52.466;-1.016;2023-04-26T00:03:15;100471.16;;;5.55;57.54
65718;BME280;52445;52.466;-1.016;2023-04-26T00:05:41;100472.03;;;5.57;57.58
65718;BME280;52445;52.466;-1.016;2023-04-26T00:08:08;100469.47;;;5.57;57.21
65718;BME280;52445;52.466;-1.016;2023-04-26T00:10:35;100466.00;;;5.55;57.32
65718;BME280;52445;52.466;-1.016;2023-04-26T00:13:02;100454.78;;;5.51;58.14
65718;BME280;52445;52.466;-1.016;2023-04-26T00:15:29;100453.00;;;5.49;57.54
65718;BME280;52445;52.466;-1.016;2023-04-26T00:17:55;100450.38;;;5.47;58.62
65718;BME280;52445;52.466;-1.016;2023-04-26T00:20:22;100450.34;;;5.46;58.82
65718;BME280;52445;52.466;-1.016;2023-04-26T00:22:49;100452.91;;;5.46;57.97
65718;BME280;52445;52.466;-1.016;2023-04-26T00:25:17;100446.06;;;5.45;57.23
65718;BME280;52445;52.466;-1.016;2023-04-26T00:27:46;100447.78;;;5.46;57.33
65718;BME280;52445;52.466;-1.016;2023-04-26T00:30:14;100442.59;;;5.43;57.51
65718;BME280;52445;52.466;-1.016;2023-04-26T00:32:42;100449.47;;;5.44;57.33
65718;BME280;52445;52.466;-1.016;2023-04-26T00:35:11;100442.59;;;5.43;57.19
65718;BME280;52445;52.466;-1.016;2023-04-26T00:37:39;100439.91;;;5.38;58.39
65718;BME280;52445;52.466;-1.016;2023-04-26T00:40:08;100437.28;;;5.36;58.29
65718;BME280;52445;52.466;-1.016;2023-04-26T00:42:38;100440.69;;;5.35;58.02
65718;BME280;52445;52.466;-1.016;2023-04-26T00:45:08;100438.09;;;5.34;57.84
65718;BME280;52445;52.466;-1.016;2023-04-26T00:47:36;100436.31;;;5.31;58.29
65718;BME280;52445;52.466;-1.016;2023-04-26T00:50:06;100433.66;;;5.28;57.67
65718;BME280;52445;52.466;-1.016;2023-04-26T00:52:36;100431.94;;;5.27;58.22
65718;BME280;52445;52.466;-1.016;2023-04-26T00:55:04;100421.66;;;5.27;57.87
65718;BME280;52445;52.466;-1.016;2023-04-26T00:57:33;100425.91;;;5.26;58.15
65718;BME280;52445;52.466;-1.016;2023-04-26T01:00:00;100423.31;;;5.25;58.04
65718;BME280;52445;52.466;-1.016;2023-04-26T01:02:27;100430.16;;;5.26;58.25
65718;BME280;52445;52.466;-1.016;2023-04-26T01:04:53;100437.06;;;5.27;57.18
65718;BME280;52445;52.466;-1.016;2023-04-26T01:07:21;100433.59;;;5.25;57.54
65718;BME280;52445;52.466;-1.016;2023-04-26T01:09:47;100429.38;;;5.28;58.09
65718;BME280;52445;52.466;-1.016;2023-04-26T01:12:15;100425.13;;;5.29;58.08
65718;BME280;52445;52.466;-1.016;2023-04-26T01:14:43;100419.97;;;5.29;57.53
65718;BME280;52445;52.466;-1.016;2023-04-26T01:17:10;100411.38;;;5.27;58.59
65718;BME280;52445;52.466;-1.016;2023-04-26T01:19:46;100412.22;;;5.27;58.26
65718;BME280;52445;52.466;-1.016;2023-04-26T01:22:13;100409.72;;;5.29;57.82
65718;BME280;52445;52.466;-1.016;2023-04-26T01:24:41;100412.31;;;5.31;58.14
65718;BME280;52445;52.466;-1.016;2023-04-26T01:27:08;100406.28;;;5.30;57.78
65718;BME280;52445;52.466;-1.016;2023-04-26T01:29:35;100408.91;;;5.32;56.97
65718;BME280;52445;52.466;-1.016;2023-04-26T01:32:02;100409.75;;;5.31;56.82
65718;BME280;52445;52.466;-1.016;2023-04-26T01:34:29;100409.75;;;5.31;56.95
65718;BME280;52445;52.466;-1.016;2023-04-26T01:36:55;100416.56;;;5.30;57.38
65718;BME280;52445;52.466;-1.016;2023-04-26T01:39:22;100413.13;;;5.28;56.96
65718;BME280;52445;52.466;-1.016;2023-04-26T01:41:49;100413.13;;;5.28;56.92
65718;BME280;52445;52.466;-1.016;2023-04-26T01:44:15;100405.38;;;5.26;57.64
65718;BME280;52445;52.466;-1.016;2023-04-26T01:46:42;100401.88;;;5.24;57.52
65718;BME280;52445;52.466;-1.016;2023-04-26T01:49:10;100396.69;;;5.21;57.57
65718;BME280;52445;52.466;-1.016;2023-04-26T01:51:37;100387.19;;;5.19;57.71
65718;BME280;52445;52.466;-1.016;2023-04-26T01:54:04;100394.84;;;5.16;57.32
65718;BME280;52445;52.466;-1.016;2023-04-26T01:56:31;100390.50;;;5.14;57.80
65718;BME280;52445;52.466;-1.016;2023-04-26T01:58:57;100387.91;;;5.13;57.96
65718;BME280;52445;52.466;-1.016;2023-04-26T02:01:24;100400.78;;;5.14;57.88
65718;BME280;52445;52.466;-1.016;2023-04-26T02:03:51;100393.91;;;5.13;58.19
65718;BME280;52445;52.466;-1.016;2023-04-26T02:06:18;100387.06;;;5.12;57.48
65718;BME280;52445;52.466;-1.016;2023-04-26T02:08:44;100389.63;;;5.12;57.97
65718;BME280;52445;52.466;-1.016;2023-04-26T02:11:11;100381.91;;;5.12;58.04
65718;BME280;52445;52.466;-1.016;2023-04-26T02:13:38;100392.19;;;5.12;57.38
65718;BME280;52445;52.466;-1.016;2023-04-26T02:16:04;100390.47;;;5.11;57.69
65718;BME280;52445;52.466;-1.016;2023-04-26T02:18:32;100387.84;;;5.10;57.54
65718;BME280;52445;52.466;-1.016;2023-04-26T02:20:58;100389.50;;;5.08;57.50
65718;BME280;52445;52.466;-1.016;2023-04-26T02:23:25;100388.47;;;5.01;58.22
65718;BME280;52445;52.466;-1.016;2023-04-26T02:25:52;100387.59;;;5.00;58.19
65718;BME280;52445;52.466;-1.016;2023-04-26T02:28:19;100382.38;;;4.96;58.30
65718;BME280;52445;52.466;-1.016;2023-04-26T02:30:46;100376.22;;;4.91;59.31
65718;BME280;52445;52.466;-1.016;2023-04-26T02:33:12;100386.34;;;4.84;60.35
65718;BME280;52445;52.466;-1.016;2023-04-26T02:35:39;100379.53;;;4.86;59.00
65718;BME280;52445;52.466;-1.016;2023-04-26T02:38:06;100381.22;;;4.84;59.68
65718;BME280;52445;52.466;-1.016;2023-04-26T02:40:32;100384.59;;;4.83;59.59
65718;BME280;52445;52.466;-1.016;2023-04-26T02:42:59;100386.25;;;4.81;60.46
65718;BME280;52445;52.466;-1.016;2023-04-26T02:45:26;100382.72;;;4.78;60.54
65718;BME280;52445;52.466;-1.016;2023-04-26T02:47:52;100382.69;;;4.76;60.72
65718;BME280;52445;52.466;-1.016;2023-04-26T02:50:19;100381.78;;;4.74;61.39
65718;BME280;52445;52.466;-1.016;2023-04-26T02:52:46;100380.16;;;4.78;60.79
65718;BME280;52445;52.466;-1.016;2023-04-26T02:55:12;100387.06;;;4.79;60.69
65718;BME280;52445;52.466;-1.016;2023-04-26T02:57:39;100387.06;;;4.80;60.58
65718;BME280;52445;52.466;-1.016;2023-04-26T03:00:07;100389.63;;;4.80;60.60
65718;BME280;52445;52.466;-1.016;2023-04-26T03:02:34;100392.25;;;4.82;60.28
65718;BME280;52445;52.466;-1.016;2023-04-26T03:05:02;100389.63;;;4.80;60.32
65718;BME280;52445;52.466;-1.016;2023-04-26T03:07:29;100385.28;;;4.78;60.62
65718;BME280;52445;52.466;-1.016;2023-04-26T03:09:56;100384.34;;;4.74;61.12
65718;BME280;52445;52.466;-1.016;2023-04-26T03:12:23;100386.88;;;4.72;60.46
65718;BME280;52445;52.466;-1.016;2023-04-26T03:14:50;100375.69;;;4.69;60.72
65718;BME280;52445;52.466;-1.016;2023-04-26T03:17:16;100375.59;;;4.66;61.34
65718;BME280;52445;52.466;-1.016;2023-04-26T03:19:43;100380.72;;;4.66;60.87
65718;BME280;52445;52.466;-1.016;2023-04-26T03:22:09;100385.84;;;4.66;60.47
65718;BME280;52445;52.466;-1.016;2023-04-26T03:24:42;100377.22;;;4.63;60.40
65718;BME280;52445;52.466;-1.016;2023-04-26T03:27:09;100382.38;;;4.63;60.60
65718;BME280;52445;52.466;-1.016;2023-04-26T03:29:36;100383.19;;;4.62;60.02
65718;BME280;52445;52.466;-1.016;2023-04-26T03:32:03;100374.56;;;4.59;60.07
65718;BME280;52445;52.466;-1.016;2023-04-26T03:34:30;100365.06;;;4.56;60.62
65718;BME280;52445;52.466;-1.016;2023-04-26T03:36:57;100365.91;;;4.55;60.78
65718;BME280;52445;52.466;-1.016;2023-04-26T03:39:23;100359.78;;;4.50;60.99
65718;BME280;52445;52.466;-1.016;2023-04-26T03:41:50;100363.16;;;4.49;61.27
65718;BME280;52445;52.466;-1.016;2023-04-26T03:44:17;100361.47;;;4.49;61.36
65718;BME280;52445;52.466;-1.016;2023-04-26T03:46:44;100360.69;;;4.52;61.38
65718;BME280;52445;52.466;-1.016;2023-04-26T03:49:10;100365.91;;;4.55;61.29
65718;BME280;52445;52.466;-1.016;2023-04-26T03:51:37;100368.56;;;4.58;61.38
65718;BME280;52445;52.466;-1.016;2023-04-26T03:54:04;100366.06;;;4.61;60.88
65718;BME280;52445;52.466;-1.016;2023-04-26T03:56:30;100370.47;;;4.66;61.01
65718;BME280;52445;52.466;-1.016;2023-04-26T03:58:57;100367.16;;;4.70;60.83
65718;BME280;52445;52.466;-1.016;2023-04-26T04:01:23;100359.50;;;4.71;61.26
65718;BME280;52445;52.466;-1.016;2023-04-26T04:03:51;100363.00;;;4.75;60.36
65718;BME280;52445;52.466;-1.016;2023-04-26T04:06:18;100357.06;;;4.78;60.80
65718;BME280;52445;52.466;-1.016;2023-04-26T04:08:44;100362.25;;;4.79;60.86
65718;BME280;52445;52.466;-1.016;2023-04-26T04:11:11;100359.69;;;4.79;60.86
65718;BME280;52445;52.466;-1.016;2023-04-26T04:13:37;100369.16;;;4.82;60.93
65718;BME280;52445;52.466;-1.016;2023-04-26T04:16:04;100370.03;;;4.82;61.48
65718;BME280;52445;52.466;-1.016;2023-04-26T04:18:32;100358.94;;;4.83;60.92
65718;BME280;52445;52.466;-1.016;2023-04-26T04:20:59;100346.94;;;4.82;61.35
65718;BME280;52445;52.466;-1.016;2023-04-26T04:23:25;100354.72;;;4.85;61.13
65718;BME280;52445;52.466;-1.016;2023-04-26T04:25:53;100344.50;;;4.87;61.29
65718;BME280;52445;52.466;-1.016;2023-04-26T04:28:20;100343.69;;;4.89;61.49
65718;BME280;52445;52.466;-1.016;2023-04-26T04:30:48;100336.88;;;4.90;60.92
65718;BME280;52445;52.466;-1.016;2023-04-26T04:33:15;100337.72;;;4.91;60.84
65718;BME280;52445;52.466;-1.016;2023-04-26T04:35:43;100329.19;;;4.92;60.68
65718;BME280;52445;52.466;-1.016;2023-04-26T04:38:10;100338.69;;;4.94;61.34
65718;BME280;52445;52.466;-1.016;2023-04-26T04:40:36;100336.97;;;4.95;60.74
65718;BME280;52445;52.466;-1.016;2023-04-26T04:43:03;100340.44;;;4.97;61.17
65718;BME280;52445;52.466;-1.016;2023-04-26T04:45:30;100337.94;;;4.98;61.43
65718;BME280;52445;52.466;-1.016;2023-04-26T04:47:56;100345.66;;;5.00;60.81
65718;BME280;52445;52.466;-1.016;2023-04-26T04:50:23;100358.50;;;5.01;60.62
65718;BME280;52445;52.466;-1.016;2023-04-26T04:52:50;100345.72;;;5.03;60.87
65718;BME280;52445;52.466;-1.016;2023-04-26T04:55:16;100354.34;;;5.05;60.85
65718;BME280;52445;52.466;-1.016;2023-04-26T04:57:43;100350.00;;;5.03;61.60
65718;BME280;52445;52.466;-1.016;2023-04-26T05:00:10;100346.53;;;5.00;61.98
65718;BME280;52445;52.466;-1.016;2023-04-26T05:02:38;100348.13;;;4.95;61.21
65718;BME280;52445;52.466;-1.016;2023-04-26T05:05:05;100352.38;;;4.95;61.50
65718;BME280;52445;52.466;-1.016;2023-04-26T05:07:32;100360.91;;;4.94;61.06
65718;BME280;52445;52.466;-1.016;2023-04-26T05:09:59;100359.25;;;4.96;61.21
65718;BME280;52445;52.466;-1.016;2023-04-26T05:12:26;100364.44;;;4.99;61.66
65718;BME280;52445;52.466;-1.016;2023-04-26T05:14:53;100361.09;;;5.01;60.90
65718;BME280;52445;52.466;-1.016;2023-04-26T05:17:19;100368.03;;;5.04;60.87
65718;BME280;52445;52.466;-1.016;2023-04-26T05:19:46;100373.22;;;5.07;61.20
65718;BME280;52445;52.466;-1.016;2023-04-26T05:22:13;100375.81;;;5.09;61.62
65718;BME280;52445;52.466;-1.016;2023-04-26T05:24:44;100374.88;;;5.05;61.82
65718;BME280;52445;52.466;-1.016;2023-04-26T05:27:11;100370.75;;;5.12;61.60
65718;BME280;52445;52.466;-1.016;2023-04-26T05:29:38;100371.72;;;5.16;61.54
65718;BME280;52445;52.466;-1.016;2023-04-26T05:32:05;100373.53;;;5.20;61.68
65718;BME280;52445;52.466;-1.016;2023-04-26T05:34:32;100382.22;;;5.25;61.12
65718;BME280;52445;52.466;-1.016;2023-04-26T05:36:58;100382.28;;;5.28;61.56
65718;BME280;52445;52.466;-1.016;2023-04-26T05:39:25;100380.63;;;5.30;61.54
65718;BME280;52445;52.466;-1.016;2023-04-26T05:41:51;100375.56;;;5.33;61.44
65718;BME280;52445;52.466;-1.016;2023-04-26T05:44:18;100385.06;;;5.37;61.02
65718;BME280;52445;52.466;-1.016;2023-04-26T05:46:45;100374.88;;;5.40;61.35
65718;BME280;52445;52.466;-1.016;2023-04-26T05:49:12;100378.38;;;5.43;60.92
65718;BME280;52445;52.466;-1.016;2023-04-26T05:51:39;100382.75;;;5.47;61.44
65718;BME280;52445;52.466;-1.016;2023-04-26T05:54:05;100382.78;;;5.50;60.58
65718;BME280;52445;52.466;-1.016;2023-04-26T05:56:32;100389.72;;;5.54;60.97
65718;BME280;52445;52.466;-1.016;2023-04-26T05:58:59;100392.41;;;5.59;61.79
65718;BME280;52445;52.466;-1.016;2023-04-26T06:01:25;100392.53;;;5.63;61.57
65718;BME280;52445;52.466;-1.016;2023-04-26T06:03:53;100398.63;;;5.69;61.30
65718;BME280;52445;52.466;-1.016;2023-04-26T06:06:25;100397.06;;;5.74;61.30
65718;BME280;52445;52.466;-1.016;2023-04-26T06:08:53;100398.06;;;5.81;60.76
65718;BME280;52445;52.466;-1.016;2023-04-26T06:11:20;100405.09;;;5.88;61.99
65718;BME280;52445;52.466;-1.016;2023-04-26T06:13:47;100400.94;;;5.95;61.68
65718;BME280;52445;52.466;-1.016;2023-04-26T06:16:14;100396.78;;;6.01;61.23
65718;BME280;52445;52.466;-1.016;2023-04-26T06:18:42;100395.25;;;6.08;61.43
65718;BME280;52445;52.466;-1.016;2023-04-26T06:21:08;100398.88;;;6.18;61.43
65718;BME280;52445;52.466;-1.016;2023-04-26T06:23:35;100394.75;;;6.25;61.60
65718;BME280;52445;52.466;-1.016;2023-04-26T06:26:01;100404.34;;;6.32;61.64
65718;BME280;52445;52.466;-1.016;2023-04-26T06:28:28;100406.97;;;6.37;60.53
65718;BME280;52445;52.466;-1.016;2023-04-26T06:30:55;100410.59;;;6.47;61.71
65718;BME280;52445;52.466;-1.016;2023-04-26T06:33:21;100410.81;;;6.56;60.56
65718;BME280;52445;52.466;-1.016;2023-04-26T06:35:48;100404.09;;;6.64;61.88
65718;BME280;52445;52.466;-1.016;2023-04-26T06:38:14;100408.63;;;6.78;61.72
65718;BME280;52445;52.466;-1.016;2023-04-26T06:40:41;100416.72;;;6.98;61.06
65718;BME280;52445;52.466;-1.016;2023-04-26T06:43:08;100416.16;;;7.16;61.02
65718;BME280;52445;52.466;-1.016;2023-04-26T06:45:35;100411.34;;;7.37;61.80
65718;BME280;52445;52.466;-1.016;2023-04-26T06:48:02;100416.75;;;7.52;61.38
65718;BME280;52445;52.466;-1.016;2023-04-26T06:50:30;100416.94;;;7.65;60.85
65718;BME280;52445;52.466;-1.016;2023-04-26T06:52:57;100402.41;;;7.68;60.93
65718;BME280;52445;52.466;-1.016;2023-04-26T06:55:23;100402.44;;;7.71;61.25
65718;BME280;52445;52.466;-1.016;2023-04-26T06:57:50;100411.09;;;7.75;60.39
65718;BME280;52445;52.466;-1.016;2023-04-26T07:00:17;100404.25;;;7.79;60.67
65718;BME280;52445;52.466;-1.016;2023-04-26T07:02:44;100407.72;;;7.81;60.23
65718;BME280;52445;52.466;-1.016;2023-04-26T07:05:11;100411.22;;;7.84;61.55
65718;BME280;52445;52.466;-1.016;2023-04-26T07:07:38;100408.72;;;7.89;60.84
65718;BME280;52445;52.466;-1.016;2023-04-26T07:10:05;100401.84;;;7.90;61.83
65718;BME280;52445;52.466;-1.016;2023-04-26T07:12:33;100402.78;;;7.96;61.20
65718;BME280;52445;52.466;-1.016;2023-04-26T07:15:00;100402.84;;;8.00;61.26
65718;BME280;52445;52.466;-1.016;2023-04-26T07:17:27;100396.81;;;8.01;60.85
65718;BME280;52445;52.466;-1.016;2023-04-26T07:19:53;100395.13;;;8.03;61.43
65718;BME280;52445;52.466;-1.016;2023-04-26T07:22:21;100399.44;;;8.04;60.50
65718;BME280;52445;52.466;-1.016;2023-04-26T07:24:48;100404.63;;;8.04;62.05
65718;BME280;52445;52.466;-1.016;2023-04-26T07:27:14;100397.75;;;8.06;60.77
65718;BME280;52445;52.466;-1.016;2023-04-26T07:29:41;100388.31;;;8.08;60.92
65718;BME280;52445;52.466;-1.016;2023-04-26T07:32:08;100393.38;;;8.00;62.04
65718;BME280;52445;52.466;-1.016;2023-04-26T07:34:34;100385.72;;;8.06;60.89
65718;BME280;52445;52.466;-1.016;2023-04-26T07:37:01;100384.09;;;8.13;61.38
65718;BME280;52445;52.466;-1.016;2023-04-26T07:39:28;100389.34;;;8.19;61.39
65718;BME280;52445;52.466;-1.016;2023-04-26T07:41:54;100385.09;;;8.25;61.93
65718;BME280;52445;52.466;-1.016;2023-04-26T07:44:21;100386.00;;;8.30;61.80
65718;BME280;52445;52.466;-1.016;2023-04-26T07:46:47;100386.13;;;8.39;61.31
65718;BME280;52445;52.466;-1.016;2023-04-26T07:49:14;100383.59;;;8.44;61.64
65718;BME280;52445;52.466;-1.016;2023-04-26T07:51:42;100386.25;;;8.52;61.82
65718;BME280;52445;52.466;-1.016;2023-04-26T07:54:09;100392.44;;;8.63;60.96
65718;BME280;52445;52.466;-1.016;2023-04-26T07:56:36;100402.03;;;8.73;60.59
65718;BME280;52445;52.466;-1.016;2023-04-26T07:59:02;100399.50;;;8.80;61.15
65718;BME280;52445;52.466;-1.016;2023-04-26T08:01:30;100399.59;;;8.87;60.69
65718;BME280;52445;52.466;-1.016;2023-04-26T08:03:56;100400.47;;;8.91;60.75
65718;BME280;52445;52.466;-1.016;2023-04-26T08:06:24;100404.03;;;9.03;60.47
65718;BME280;52445;52.466;-1.016;2023-04-26T08:08:51;100405.97;;;9.29;60.64
65718;BME280;52445;52.466;-1.016;2023-04-26T08:11:19;100398.69;;;10.02;60.73
65718;BME280;52445;52.466;-1.016;2023-04-26T08:13:45;100401.56;;;10.66;58.48
65718;BME280;52445;52.466;-1.016;2023-04-26T08:16:13;100394.72;;;11.21;57.59
65718;BME280;52445;52.466;-1.016;2023-04-26T08:18:39;100388.66;;;11.58;56.50
65718;BME280;52445;52.466;-1.016;2023-04-26T08:21:06;100391.22;;;11.81;56.86
65718;BME280;52445;52.466;-1.016;2023-04-26T08:23:34;100389.47;;;11.83;55.44
65718;BME280;52445;52.466;-1.016;2023-04-26T08:26:02;100379.94;;;11.89;53.55
65718;BME280;52445;52.466;-1.016;2023-04-26T08:28:28;100384.25;;;11.96;54.29
65718;BME280;52445;52.466;-1.016;2023-04-26T08:30:55;100395.53;;;11.82;54.21
65718;BME280;52445;52.466;-1.016;2023-04-26T08:33:22;100396.41;;;11.85;53.39
65718;BME280;52445;52.466;-1.016;2023-04-26T08:35:48;100395.53;;;11.82;53.27
65718;BME280;52445;52.466;-1.016;2023-04-26T08:38:15;100393.88;;;11.49;52.13
65718;BME280;52445;52.466;-1.016;2023-04-26T08:40:43;100402.50;;;11.60;53.27
65718;BME280;52445;52.466;-1.016;2023-04-26T08:43:14;100402.41;;;12.12;52.60
65718;BME280;52445;52.466;-1.016;2023-04-26T08:45:43;100401.19;;;12.84;52.64
65718;BME280;52445;52.466;-1.016;2023-04-26T08:48:11;100400.78;;;13.39;50.89
65718;BME280;52445;52.466;-1.016;2023-04-26T08:50:43;100406.34;;;13.93;51.05
65718;BME280;52445;52.466;-1.016;2023-04-26T08:53:15;100393.00;;;14.21;50.09
65718;BME280;52445;52.466;-1.016;2023-04-26T08:55:48;100399.78;;;14.36;49.11
65718;BME280;52445;52.466;-1.016;2023-04-26T08:58:16;100395.56;;;14.27;48.29
65718;BME280;52445;52.466;-1.016;2023-04-26T09:00:44;100391.41;;;14.12;49.59
65718;BME280;52445;52.466;-1.016;2023-04-26T09:03:11;100398.66;;;13.85;47.92
65718;BME280;52445;52.466;-1.016;2023-04-26T09:05:39;100394.53;;;13.64;48.34
65718;BME280;52445;52.466;-1.016;2023-04-26T09:08:13;100395.50;;;13.47;47.33
65718;BME280;52445;52.466;-1.016;2023-04-26T09:10:41;100397.53;;;13.14;47.33
65718;BME280;52445;52.466;-1.016;2023-04-26T09:13:08;100402.78;;;13.04;48.22
65718;BME280;52445;52.466;-1.016;2023-04-26T09:15:36;100407.19;;;12.93;48.63
65718;BME280;52445;52.466;-1.016;2023-04-26T09:18:16;100403.78;;;12.83;49.13
65718;BME280;52445;52.466;-1.016;2023-04-26T09:20:44;100408.97;;;12.88;49.00
65718;BME280;52445;52.466;-1.016;2023-04-26T09:23:11;100401.06;;;12.98;48.38
65718;BME280;52445;52.466;-1.016;2023-04-26T09:25:37;100401.06;;;13.03;48.39
65718;BME280;52445;52.466;-1.016;2023-04-26T09:28:19;100411.50;;;12.97;47.51
65718;BME280;52445;52.466;-1.016;2023-04-26T09:30:47;100404.56;;;12.96;48.11
65718;BME280;52445;52.466;-1.016;2023-04-26T09:33:14;100412.44;;;12.88;49.04
65718;BME280;52445;52.466;-1.016;2023-04-26T09:35:42;100403.78;;;12.84;48.70
65718;BME280;52445;52.466;-1.016;2023-04-26T09:40:48;100396.84;;;12.83;48.02
65718;BME280;52445;52.466;-1.016;2023-04-26T09:43:17;100388.13;;;12.97;48.54
65718;BME280;52445;52.466;-1.016;2023-04-26T09:48:23;100397.44;;;13.24;47.94
65718;BME280;52445;52.466;-1.016;2023-04-26T09:50:52;100390.59;;;13.13;48.59
65718;BME280;52445;52.466;-1.016;2023-04-26T09:53:37;100399.34;;;13.02;47.41
65718;BME280;52445;52.466;-1.016;2023-04-26T09:58:58;100388.19;;;12.84;49.01
65718;BME280;52445;52.466;-1.016;2023-04-26T10:01:27;100385.63;;;12.81;47.39
65718;BME280;52445;52.466;-1.016;2023-04-26T10:03:55;100376.97;;;12.79;48.41
65718;BME280;52445;52.466;-1.016;2023-04-26T10:06:23;100376.16;;;12.66;49.10
65718;BME280;52445;52.466;-1.016;2023-04-26T10:08:50;100373.56;;;12.71;47.77
65718;BME280;52445;52.466;-1.016;2023-04-26T10:11:17;100387.38;;;12.78;47.86
65718;BME280;52445;52.466;-1.016;2023-04-26T10:13:49;100376.94;;;12.85;46.88
65718;BME280;52445;52.466;-1.016;2023-04-26T10:16:19;100377.72;;;12.97;45.94
65718;BME280;52445;52.466;-1.016;2023-04-26T10:18:47;100368.16;;;12.99;46.43
65718;BME280;52445;52.466;-1.016;2023-04-26T10:21:21;100366.34;;;13.10;47.27
65718;BME280;52445;52.466;-1.016;2023-04-26T10:23:51;100362.72;;;13.24;46.71
65718;BME280;52445;52.466;-1.016;2023-04-26T10:26:45;100359.41;;;13.13;47.35
65718;BME280;52445;52.466;-1.016;2023-04-26T10:29:13;100352.44;;;13.11;47.06
65718;BME280;52445;52.466;-1.016;2023-04-26T10:34:36;100349.72;;;13.24;46.22
65718;BME280;52445;52.466;-1.016;2023-04-26T10:37:13;100353.88;;;13.50;47.15
65718;BME280;52445;52.466;-1.016;2023-04-26T10:39:41;100345.00;;;13.68;46.08
65718;BME280;52445;52.466;-1.016;2023-04-26T10:42:26;100344.06;;;13.74;46.52
65718;BME280;52445;52.466;-1.016;2023-04-26T10:47:33;100342.13;;;13.93;46.07
65718;BME280;52445;52.466;-1.016;2023-04-26T10:50:02;100335.44;;;13.70;44.95
65718;BME280;52445;52.466;-1.016;2023-04-26T10:52:31;100341.28;;;13.90;45.21
65718;BME280;52445;52.466;-1.016;2023-04-26T10:54:58;100340.63;;;13.75;45.28
65718;BME280;52445;52.466;-1.016;2023-04-26T10:57:46;100333.81;;;13.61;43.58
65718;BME280;52445;52.466;-1.016;2023-04-26T11:00:15;100336.34;;;13.68;44.70
65718;BME280;52445;52.466;-1.016;2023-04-26T11:02:45;100329.41;;;13.67;44.23
65718;BME280;52445;52.466;-1.016;2023-04-26T11:13:42;100329.63;;;13.42;44.08
65718;BME280;52445;52.466;-1.016;2023-04-26T11:16:11;100321.06;;;13.33;45.06
65718;BME280;52445;52.466;-1.016;2023-04-26T11:18:40;100321.78;;;13.46;44.92
65718;BME280;52445;52.466;-1.016;2023-04-26T11:21:08;100316.59;;;13.46;45.04
65718;BME280;52445;52.466;-1.016;2023-04-26T11:23:35;100311.34;;;13.51;45.52
65718;BME280;52445;52.466;-1.016;2023-04-26T11:26:04;100310.53;;;13.43;44.46
65718;BME280;52445;52.466;-1.016;2023-04-26T11:28:33;100311.56;;;13.28;45.26
65718;BME280;52445;52.466;-1.016;2023-04-26T11:31:02;100309.97;;;13.13;44.84
65718;BME280;52445;52.466;-1.016;2023-04-26T11:33:30;100309.13;;;13.10;45.83
65718;BME280;52445;52.466;-1.016;2023-04-26T11:35:57;100313.13;;;13.46;45.89
65718;BME280;52445;52.466;-1.016;2023-04-26T11:38:25;100315.59;;;13.58;45.73
65718;BME280;52445;52.466;-1.016;2023-04-26T11:43:41;100324.91;;;13.80;45.88
65718;BME280;52445;52.466;-1.016;2023-04-26T11:46:08;100320.53;;;13.86;45.07
65718;BME280;52445;52.466;-1.016;2023-04-26T11:48:36;100311.84;;;13.84;43.81
65718;BME280;52445;52.466;-1.016;2023-04-26T11:51:05;100311.03;;;13.81;45.13
65718;BME280;52445;52.466;-1.016;2023-04-26T11:53:42;100317.03;;;13.87;45.50
65718;BME280;52445;52.466;-1.016;2023-04-26T11:56:18;100315.22;;;13.93;45.54
65718;BME280;52445;52.466;-1.016;2023-04-26T12:01:23;100305.94;;;13.71;44.80
65718;BME280;52445;52.466;-1.016;2023-04-26T12:03:52;100310.41;;;13.58;44.08
65718;BME280;52445;52.466;-1.016;2023-04-26T12:06:25;100319.09;;;13.57;44.00
65718;BME280;52445;52.466;-1.016;2023-04-26T12:08:55;100314.00;;;13.45;43.20
65718;BME280;52445;52.466;-1.016;2023-04-26T12:11:22;100313.13;;;13.49;44.72
65718;BME280;52445;52.466;-1.016;2023-04-26T12:13:48;100313.91;;;13.57;45.99
65718;BME280;52445;52.466;-1.016;2023-04-26T12:16:15;100307.75;;;13.65;45.72
65718;BME280;52445;52.466;-1.016;2023-04-26T12:18:52;100310.19;;;13.77;45.68
65718;BME280;52445;52.466;-1.016;2023-04-26T12:21:19;100309.28;;;13.81;44.61
65718;BME280;52445;52.466;-1.016;2023-04-26T12:23:46;100304.84;;;13.90;44.72
65718;BME280;52445;52.466;-1.016;2023-04-26T12:26:14;100303.06;;;13.95;44.92
65718;BME280;52445;52.466;-1.016;2023-04-26T12:28:41;100309.03;;;14.01;43.92
65718;BME280;52445;52.466;-1.016;2023-04-26T12:31:08;100308.16;;;14.01;44.00
65718;BME280;52445;52.466;-1.016;2023-04-26T12:33:35;100307.41;;;13.93;44.36
65718;BME280;52445;52.466;-1.016;2023-04-26T12:36:11;100303.25;;;13.79;44.92
65718;BME280;52445;52.466;-1.016;2023-04-26T12:38:38;100305.16;;;13.61;45.46
65718;BME280;52445;52.466;-1.016;2023-04-26T12:41:06;100300.00;;;13.58;45.97
65718;BME280;52445;52.466;-1.016;2023-04-26T12:43:32;100308.38;;;13.85;46.23
65718;BME280;52445;52.466;-1.016;2023-04-26T12:45:59;100310.09;;;13.86;46.00
65718;BME280;52445;52.466;-1.016;2023-04-26T12:48:27;100309.00;;;14.05;46.59
65718;BME280;52445;52.466;-1.016;2023-04-26T12:50:54;100312.53;;;14.02;46.83
65718;BME280;52445;52.466;-1.016;2023-04-26T12:53:21;100316.91;;;13.95;45.54
65718;BME280;52445;52.466;-1.016;2023-04-26T12:55:47;100317.03;;;13.87;45.44
65718;BME280;52445;52.466;-1.016;2023-04-26T12:58:14;100313.66;;;13.79;47.35
65718;BME280;52445;52.466;-1.016;2023-04-26T13:00:41;100319.59;;;13.92;45.57
65718;BME280;52445;52.466;-1.016;2023-04-26T13:03:10;100325.56;;;13.99;46.00
65718;BME280;52445;52.466;-1.016;2023-04-26T13:05:40;100315.41;;;13.77;46.02
65718;BME280;52445;52.466;-1.016;2023-04-26T13:08:07;100320.81;;;13.58;45.44
65718;BME280;52445;52.466;-1.016;2023-04-26T13:10:34;100317.25;;;13.67;45.07
65718;BME280;52445;52.466;-1.016;2023-04-26T13:13:02;100325.84;;;13.74;45.62
65718;BME280;52445;52.466;-1.016;2023-04-26T13:15:28;100318.13;;;13.69;45.75